Time;durP1;ratioP1;P1;durP2;ratioP2;P2;SDS_P1;SDS_P2;PMS_P1;PMS_P2;Temp;Humidity;BMP_temperature;BMP_pressure;BME280_temperature;BME280_humidity;BME280_pressure;Samples;Min_cycle;Max_cycle;Signal;HPM_P1;HPM_P2
2020/12/21 00:00:56;;;;;;;4.70;4.13;;;;;;;;;;5086882;28;20501;-58
2020/12/21 00:03:39;;;;;;;6.72;4.97;;;;;;;;;;5092087;28;20139;-58
2020/12/21 00:06:37;;;;;;;7.00;3.67;;;;;;;;;;5101375;28;20052;-57
2020/12/21 00:12:59;;;;;;;4.15;3.33;;;;;;;;;;5077783;28;20092;-58
2020/12/21 00:15:38;;;;;;;4.72;3.00;;;;;;;;;;5110388;28;20061;-58
2020/12/21 00:18:32;;;;;;;4.35;3.78;;;;;;;;;;5112409;28;20066;-57
2020/12/21 00:21:18;;;;;;;5.00;3.80;;;;;;;;;;5112340;28;20040;-58
2020/12/21 00:24:04;;;;;;;3.20;2.83;;;;;;;;;;5111884;28;20020;-58
2020/12/21 00:26:42;;;;;;;3.22;2.58;;;;;;;;;;5111821;28;20028;-58
2020/12/21 00:29:21;;;;;;;2.97;2.65;;;;;;;;;;5112664;28;20044;-56
2020/12/21 00:35:03;;;;;;;3.30;2.45;;;;;;;;;;5102231;28;20089;-58
2020/12/21 00:40:47;;;;;;;2.75;2.15;;;;;;;;;;5035207;28;20033;-58
2020/12/21 00:43:33;;;;;;;2.40;1.88;;;;;;;;;;5033123;28;20059;-57
2020/12/21 00:46:28;;;;;;;3.63;2.47;;;;;;;;;;5095854;28;20051;-58
2020/12/21 00:49:08;;;;;;;2.15;1.33;;;;;;;;;;5109876;28;20032;-57
2020/12/21 00:51:38;;;;;;;2.22;1.75;;;;;;;;;;5111398;28;20016;-57
2020/12/21 00:57:17;;;;;;;2.63;1.65;;;;;;;;;;5048771;28;20037;-58
2020/12/21 00:59:46;;;;;;;2.65;1.98;;;;;;;;;;5060595;28;20059;-58
2020/12/21 01:02:37;;;;;;;2.80;1.80;;;;;;;;;;5111325;28;20024;-58
2020/12/21 01:05:20;;;;;;;2.80;1.80;;;;;;;;;;5111784;28;20056;-56
2020/12/21 01:08:13;;;;;;;2.88;1.65;;;;;;;;;;5110515;28;20052;-58
2020/12/21 01:11:17;;;;;;;2.05;1.35;;;;;;;;;;5132163;28;20617;-58
2020/12/21 01:13:47;;;;;;;2.40;1.42;;;;;;;;;;5113176;28;20031;-57
2020/12/21 01:16:16;;;;;;;2.00;1.52;;;;;;;;;;5113291;28;20031;-57
2020/12/21 01:18:52;;;;;;;2.35;1.52;;;;;;;;;;5107316;28;20028;-58
2020/12/21 01:21:35;;;;;;;3.55;1.33;;;;;;;;;;5131255;28;20039;-57
2020/12/21 01:24:11;;;;;;;2.42;1.65;;;;;;;;;;5131088;28;20031;-59
2020/12/21 01:29:28;;;;;;;2.42;1.75;;;;;;;;;;5131072;28;20041;-56
2020/12/21 01:32:20;;;;;;;2.22;1.92;;;;;;;;;;5131314;28;20113;-58
2020/12/21 01:34:59;;;;;;;3.30;2.03;;;;;;;;;;5131242;28;20050;-57
2020/12/21 01:37:53;;;;;;;;;;;;;;;;;;;;;
2020/12/21 01:40:29;;;;;;;3.28;2.33;;;;;;;;;;5130794;28;20043;-58
2020/12/21 01:43:11;;;;;;;3.28;2.13;;;;;;;;;;5130570;28;20032;-57
2020/12/21 01:45:51;;;;;;;2.08;1.40;;;;;;;;;;5130873;28;20044;-58
2020/12/21 01:48:48;;;;;;;2.58;1.63;;;;;;;;;;5130444;28;20028;-58
2020/12/21 01:51:56;;;;;;;2.55;2.00;;;;;;;;;;5130708;28;20019;-58
2020/12/21 02:01:54;;;;;;;3.97;2.67;;;;;;;;;;5028182;28;20037;-56
2020/12/21 02:04:35;;;;;;;4.40;2.97;;;;;;;;;;5027238;28;20029;-58
2020/12/21 02:07:21;;;;;;;3.20;2.90;;;;;;;;;;5043617;28;20052;-57
2020/12/21 02:10:07;;;;;;;3.20;2.83;;;;;;;;;;5068071;28;20025;-58
2020/12/21 02:16:20;;;;;;;3.95;3.10;;;;;;;;;;5031224;28;20025;-57
2020/12/21 02:18:58;;;;;;;4.78;3.92;;;;;;;;;;5048149;28;20506;-55
2020/12/21 02:21:41;;;;;;;6.97;3.75;;;;;;;;;;5047229;28;20097;-57
2020/12/21 02:24:17;;;;;;;3.45;3.15;;;;;;;;;;5029869;28;20044;-59
2020/12/21 02:26:55;;;;;;;4.03;2.67;;;;;;;;;;5030965;28;20057;-57
2020/12/21 02:29:44;;;;;;;3.80;3.40;;;;;;;;;;5030706;28;20149;-55
2020/12/21 02:32:28;;;;;;;5.15;4.63;;;;;;;;;;5037320;28;20041;-58
2020/12/21 02:35:19;;;;;;;7.53;4.00;;;;;;;;;;5031882;28;20103;-58
2020/12/21 02:38:25;;;;;;;7.25;4.10;;;;;;;;;;5047594;28;20116;-58
2020/12/21 02:44:14;;;;;;;;;;;;;;;;;;;;;
2020/12/21 02:47:04;;;;;;;8.75;5.28;;;;;;;;;;5042385;28;20065;-56
2020/12/21 02:49:54;;;;;;;5.60;4.88;;;;;;;;;;5063515;28;20028;-56
2020/12/21 02:52:58;;;;;;;6.68;4.47;;;;;;;;;;5123109;28;20023;-53
2020/12/21 02:58:40;;;;;;;5.25;4.40;;;;;;;;;;5046731;28;20037;-58
2020/12/21 03:01:12;;;;;;;7.78;5.05;;;;;;;;;;5047329;28;20065;-57
2020/12/21 03:10:04;;;;;;;7.95;4.53;;;;;;;;;;5046534;28;20068;-58
2020/12/21 03:12:38;;;;;;;5.43;4.28;;;;;;;;;;5030185;28;20084;-56
2020/12/21 03:15:30;;;;;;;6.13;4.30;;;;;;;;;;5114816;28;20043;-57
2020/12/21 03:21:19;;;;;;;4.35;3.90;;;;;;;;;;5114927;28;20028;-58
2020/12/21 03:24:30;;;;;;;6.43;4.55;;;;;;;;;;5129180;28;20031;-55
2020/12/21 03:27:06;;;;;;;6.30;4.43;;;;;;;;;;5068591;28;20045;-57
2020/12/21 03:29:50;;;;;;;5.07;4.57;;;;;;;;;;5128963;28;20039;-57
2020/12/21 03:35:59;;;;;;;;;;;;;;;;;;;;;
2020/12/21 03:38:44;;;;;;;7.47;6.25;;;;;;;;;;5117451;28;20067;-55
2020/12/21 03:41:16;;;;;;;6.75;6.03;;;;;;;;;;5117915;28;20028;-55
2020/12/21 03:44:18;;;;;;;7.70;6.32;;;;;;;;;;5133300;28;20034;-56
2020/12/21 03:53:27;;;;;;;6.65;5.68;;;;;;;;;;5128586;28;20047;-56
2020/12/21 03:56:02;;;;;;;;;;;;;;;;;;5094298;28;20129;-58
2020/12/21 04:02:12;;;;;;;7.45;5.82;;;;;;;;;;5133469;28;20130;-58
2020/12/21 04:04:46;;;;;;;8.38;7.57;;;;;;;;;;5069462;28;20033;-56
2020/12/21 04:16:14;;;;;;;;;;;;;;;;;;;;;
2020/12/21 04:19:02;;;;;;;6.93;5.67;;;;;;;;;;5132732;28;20059;-57
2020/12/21 04:21:56;;;;;;;9.27;5.97;;;;;;;;;;5132522;28;20054;-58
2020/12/21 04:27:27;;;;;;;6.53;4.88;;;;;;;;;;5132514;28;20047;-58
2020/12/21 04:30:09;;;;;;;6.43;5.83;;;;;;;;;;5132348;28;20043;-57
2020/12/21 04:38:55;;;;;;;;;;;;;;;;;;;;;
2020/12/21 04:41:44;;;;;;;10.40;8.15;;;;;;;;;;5117172;28;20348;-58
2020/12/21 04:44:55;;;;;;;9.98;8.73;;;;;;;;;;5117938;28;20452;-55
2020/12/21 04:47:39;;;;;;;8.82;7.95;;;;;;;;;;5074500;28;20493;-58
2020/12/21 04:50:51;;;;;;;7.82;6.88;;;;;;;;;;5074528;28;20038;-58
2020/12/21 04:53:27;;;;;;;9.50;7.70;;;;;;;;;;5073263;28;20051;-56
2020/12/21 04:56:12;;;;;;;8.40;7.55;;;;;;;;;;5063388;28;20497;-57
2020/12/21 04:59:13;;;;;;;12.48;7.13;;;;;;;;;;5074265;28;20029;-58
2020/12/21 05:02:00;;;;;;;7.32;6.47;;;;;;;;;;5051056;28;20024;-58
2020/12/21 05:05:07;;;;;;;;;;;;;;;;;;;;;
2020/12/21 05:20:07;;;;;;;8.27;6.70;;;;;;;;;;5108403;28;20110;-58
2020/12/21 05:22:48;;;;;;;7.15;6.45;;;;;;;;;;5073790;28;20123;-58
2020/12/21 05:25:52;;;;;;;10.35;7.07;;;;;;;;;;5074152;28;20041;-53
2020/12/21 05:28:26;;;;;;;;;;;;;;;;;;;;;
2020/12/21 05:31:27;;;;;;;;;;;;;;;;;;;;;
2020/12/21 05:37:35;;;;;;;;;;;;;;;;;;;;;
2020/12/21 05:40:28;;;;;;;10.53;9.03;;;;;;;;;;5083515;28;20032;-57
2020/12/21 05:43:23;;;;;;;14.48;9.55;;;;;;;;;;5088797;28;20032;-54
2020/12/21 05:46:12;;;;;;;11.07;9.95;;;;;;;;;;5088599;28;20501;-57
2020/12/21 05:49:01;;;;;;;9.63;8.63;;;;;;;;;;5094338;28;20664;-57
2020/12/21 05:51:58;;;;;;;10.43;8.03;;;;;;;;;;5131511;28;20120;-56
2020/12/21 05:55:10;;;;;;;8.20;7.47;;;;;;;;;;5131330;28;20027;-57
2020/12/21 05:58:03;;;;;;;8.13;7.20;;;;;;;;;;5124147;28;20053;-57
2020/12/21 06:00:44;;;;;;;9.90;7.77;;;;;;;;;;5048415;28;20037;-58
2020/12/21 06:03:34;;;;;;;8.82;7.30;;;;;;;;;;5048148;28;20033;-58
2020/12/21 06:06:27;;;;;;;8.33;7.50;;;;;;;;;;5047002;28;20049;-56
2020/12/21 06:09:13;;;;;;;9.17;7.60;;;;;;;;;;5045196;28;20116;-57
2020/12/21 06:12:04;;;;;;;8.47;7.57;;;;;;;;;;5028125;28;20045;-57
2020/12/21 06:14:38;;;;;;;8.27;7.47;;;;;;;;;;5027738;28;20030;-54
2020/12/21 06:17:13;;;;;;;10.15;7.82;;;;;;;;;;4994347;28;20098;-57
2020/12/21 06:19:51;;;;;;;8.03;5.97;;;;;;;;;;5007177;28;20395;-58
2020/12/21 06:25:40;;;;;;;7.87;6.83;;;;;;;;;;5103370;28;20036;-57
2020/12/21 06:28:07;;;;;;;7.25;6.47;;;;;;;;;;5110079;28;20461;-58
2020/12/21 06:31:15;;;;;;;5.22;4.72;;;;;;;;;;5109085;28;20032;-57
2020/12/21 06:37:12;;;;;;;7.23;6.30;;;;;;;;;;4986901;28;20058;-56
2020/12/21 06:40:15;;;;;;;7.55;5.50;;;;;;;;;;5042337;28;20033;-56
2020/12/21 06:42:42;;;;;;;9.03;6.70;;;;;;;;;;5028406;28;20045;-56
2020/12/21 06:45:22;;;;;;;9.23;7.03;;;;;;;;;;5029047;28;20080;-55
2020/12/21 06:51:14;;;;;;;6.87;6.10;;;;;;;;;;5007190;28;20030;-58
2020/12/21 06:54:09;;;;;;;9.03;5.77;;;;;;;;;;5046889;28;20028;-57
2020/12/21 06:56:48;;;;;;;8.47;6.13;;;;;;;;;;5066526;28;20533;-58
2020/12/21 07:02:58;;;;;;;7.47;5.80;;;;;;;;;;5044862;28;20029;-58
2020/12/21 07:05:46;;;;;;;6.13;5.33;;;;;;;;;;5049525;28;20095;-58
2020/12/21 07:11:41;;;;;;;6.10;5.27;;;;;;;;;;5060231;28;20060;-55
2020/12/21 07:17:34;;;;;;;;;;;;;;;;;;;;;
2020/12/21 07:20:10;;;;;;;7.90;6.43;;;;;;;;;;5085597;28;20052;-56
2020/12/21 07:26:08;;;;;;;11.40;7.53;;;;;;;;;;5040573;28;20177;-55
2020/12/21 07:28:55;;;;;;;7.37;6.63;;;;;;;;;;5052040;28;20083;-57
2020/12/21 07:31:25;;;;;;;7.33;6.57;;;;;;;;;;5066216;28;20090;-58
2020/12/21 07:34:04;;;;;;;8.97;6.33;;;;;;;;;;5043415;28;20192;-57
2020/12/21 07:37:09;;;;;;;9.25;7.72;;;;;;;;;;5026707;28;20470;-58
2020/12/21 07:39:48;;;;;;;9.17;7.77;;;;;;;;;;5052423;28;20033;-58
2020/12/21 07:42:23;;;;;;;9.18;8.10;;;;;;;;;;5046198;28;20471;-56
2020/12/21 07:45:15;;;;;;;8.00;6.77;;;;;;;;;;5051791;28;20048;-55
2020/12/21 07:50:56;;;;;;;9.50;7.83;;;;;;;;;;5029020;28;20032;-58
2020/12/21 07:56:44;;;;;;;7.90;6.27;;;;;;;;;;5094514;28;20032;-58
2020/12/21 07:59:19;;;;;;;8.93;7.03;;;;;;;;;;5094574;28;20024;-57
2020/12/21 08:05:28;;;;;;;7.37;6.57;;;;;;;;;;5094133;28;20480;-58
2020/12/21 08:08:14;;;;;;;7.10;6.00;;;;;;;;;;5011886;28;20070;-54
2020/12/21 08:10:57;;;;;;;8.30;7.23;;;;;;;;;;5110345;28;20055;-54
2020/12/21 08:13:53;;;;;;;9.23;7.90;;;;;;;;;;5050352;28;20044;-58
2020/12/21 08:16:38;;;;;;;7.33;6.63;;;;;;;;;;5096646;28;20465;-58
2020/12/21 08:19:26;;;;;;;10.27;7.75;;;;;;;;;;5119368;28;20471;-57
2020/12/21 08:22:23;;;;;;;;;;;;;;;;;;;;;
2020/12/21 08:25:09;;;;;;;9.63;8.63;;;;;;;;;;5114869;28;20440;-56
2020/12/21 08:27:47;;;;;;;7.85;6.85;;;;;;;;;;5082237;28;20123;-55
2020/12/21 08:30:34;;;;;;;8.67;7.87;;;;;;;;;;5114930;28;20093;-57
2020/12/21 08:33:29;;;;;;;9.13;7.70;;;;;;;;;;5119768;28;20031;-57
2020/12/21 08:39:25;;;;;;;7.63;6.90;;;;;;;;;;5096529;28;20498;-58
2020/12/21 08:45:16;;;;;;;9.97;9.07;;;;;;;;;;5074177;28;20037;-56
2020/12/21 08:51:23;;;;;;;8.93;7.85;;;;;;;;;;5045662;28;20037;-56
2020/12/21 08:54:40;;;;;;;8.90;6.78;;;;;;;;;;5128723;28;20024;-56
2020/12/21 09:00:44;;;;;;;9.32;8.38;;;;;;;;;;5116082;28;20040;-58
2020/12/21 09:03:37;;;;;;;8.98;8.05;;;;;;;;;;5027519;28;20033;-58
2020/12/21 09:06:20;;;;;;;10.23;6.93;;;;;;;;;;5051378;28;20029;-57
2020/12/21 09:09:11;;;;;;;8.90;7.80;;;;;;;;;;5130965;28;20024;-57
2020/12/21 09:12:03;;;;;;;8.98;7.53;;;;;;;;;;5127476;28;20062;-58
2020/12/21 09:15:15;;;;;;;7.93;7.13;;;;;;;;;;5111600;28;20032;-57
2020/12/21 09:24:14;;;;;;;12.80;6.60;;;;;;;;;;5046686;28;20045;-57
2020/12/21 09:27:25;;;;;;;7.60;6.80;;;;;;;;;;5048449;28;20049;-57
2020/12/21 09:30:03;;;;;;;7.20;6.25;;;;;;;;;;5048236;28;20037;-55
2020/12/21 09:32:55;;;;;;;8.33;7.53;;;;;;;;;;5032005;28;20029;-57
2020/12/21 09:38:54;;;;;;;11.80;8.43;;;;;;;;;;5028367;28;20057;-58
2020/12/21 09:47:34;;;;;;;8.85;7.68;;;;;;;;;;5045571;28;20045;-57
2020/12/21 09:50:30;;;;;;;10.40;7.45;;;;;;;;;;5045769;28;20085;-57
2020/12/21 09:53:36;;;;;;;18.15;7.45;;;;;;;;;;5019429;28;20483;-57
2020/12/21 09:56:16;;;;;;;9.05;7.18;;;;;;;;;;4967224;29;20124;-57
2020/12/21 10:02:01;;;;;;;6.57;5.90;;;;;;;;;;5122021;28;20026;-58
2020/12/21 10:14:13;;;;;;;5.93;5.32;;;;;;;;;;5111134;28;20496;-55
2020/12/21 10:17:02;;;;;;;9.02;6.90;;;;;;;;;;5129878;28;20054;-58
2020/12/21 10:28:52;;;;;;;11.70;7.07;;;;;;;;;;5126524;28;20043;-57
2020/12/21 10:31:37;;;;;;;9.30;6.47;;;;;;;;;;5027966;28;20049;-54
2020/12/21 10:34:16;;;;;;;6.57;5.97;;;;;;;;;;5046596;28;20107;-55
2020/12/21 10:36:58;;;;;;;12.63;7.03;;;;;;;;;;5115128;28;20059;-58
2020/12/21 10:39:52;;;;;;;7.20;6.50;;;;;;;;;;5088354;28;20032;-59
2020/12/21 10:42:46;;;;;;;6.45;5.45;;;;;;;;;;5032024;28;20045;-57
2020/12/21 10:48:35;;;;;;;6.90;5.72;;;;;;;;;;5031819;28;20083;-55
2020/12/21 10:54:49;;;;;;;7.80;4.68;;;;;;;;;;4991957;28;20130;-56
2020/12/21 10:57:54;;;;;;;6.22;5.35;;;;;;;;;;4992392;28;20031;-57
2020/12/21 11:00:55;;;;;;;8.75;6.28;;;;;;;;;;5048759;28;20044;-57
2020/12/21 11:03:50;;;;;;;6.00;5.40;;;;;;;;;;5012313;28;20048;-58
2020/12/21 11:06:57;;;;;;;7.20;5.63;;;;;;;;;;5067008;28;20418;-58
2020/12/21 11:10:09;;;;;;;;;;;;;;;;;;;;;
2020/12/21 11:12:41;;;;;;;;;;;;;;;;;;;;;
2020/12/21 11:15:33;;;;;;;6.63;5.68;;;;;;;;;;5055608;28;20440;-58
2020/12/21 11:18:13;;;;;;;6.75;5.72;;;;;;;;;;5072772;28;20501;-58
2020/12/21 11:27:39;;;;;;;4.22;3.83;;;;;;;;;;4989046;28;20046;-57
2020/12/21 11:30:17;;;;;;;5.30;4.50;;;;;;;;;;5072452;28;20051;-56
2020/12/21 11:33:12;;;;;;;5.97;4.72;;;;;;;;;;5055453;28;20482;-58
2020/12/21 11:36:29;;;;;;;6.60;4.68;;;;;;;;;;5096357;28;20395;-58
2020/12/21 11:39:25;;;;;;;7.43;4.28;;;;;;;;;;5051369;28;20545;-58
2020/12/21 11:51:23;;;;;;;6.13;4.57;;;;;;;;;;5046252;28;20478;-55
2020/12/21 11:54:17;;;;;;;6.50;5.90;;;;;;;;;;5118258;28;20429;-58
2020/12/21 11:57:17;;;;;;;;;;;;;;;;;;;;;
2020/12/21 12:00:00;;;;;;;7.10;4.78;;;;;;;;;;5118192;28;20369;-58
2020/12/21 12:03:03;;;;;;;7.53;5.40;;;;;;;;;;5055519;28;20529;-58
2020/12/21 12:05:42;;;;;;;4.72;4.22;;;;;;;;;;4988703;28;20557;-58
2020/12/21 12:08:45;;;;;;;4.43;3.65;;;;;;;;;;5055852;28;20039;-59
2020/12/21 12:11:34;;;;;;;5.30;2.85;;;;;;;;;;5053834;28;20493;-55
2020/12/21 12:14:06;;;;;;;4.78;3.42;;;;;;;;;;5037920;28;20068;-57
2020/12/21 12:22:54;;;;;;;7.35;3.85;;;;;;;;;;5048873;28;20083;-56
2020/12/21 12:35:26;;;;;;;;;;;;;;;;;;;;;
2020/12/21 12:38:07;;;;;;;4.70;2.97;;;;;;;;;;4995920;28;20045;-58
2020/12/21 12:40:55;;;;;;;3.13;2.58;;;;;;;;;;4976165;28;20480;-58
2020/12/21 12:43:48;;;;;;;3.33;2.67;;;;;;;;;;4976696;28;20034;-56
2020/12/21 12:46:37;;;;;;;4.53;2.78;;;;;;;;;;5053293;28;20045;-56
2020/12/21 12:49:13;;;;;;;;;;;;;;;;;;;;;
2020/12/21 12:51:58;;;;;;;4.10;2.42;;;;;;;;;;5080154;28;20423;-58
2020/12/21 12:54:39;;;;;;;3.35;2.60;;;;;;;;;;5094065;28;20044;-57
2020/12/21 12:57:47;;;;;;;;;;;;;;;;;;;;;
2020/12/21 13:00:58;;;;;;;;;;;;;;;;;;;;;
2020/12/21 13:09:19;;;;;;;2.85;1.83;;;;;;;;;;5094804;28;20027;-58
2020/12/21 13:24:41;;;;;;;5.03;2.78;;;;;;;;;;5110353;28;20434;-58
2020/12/21 13:27:31;;;;;;;3.60;2.70;;;;;;;;;;5099998;28;20058;-58
2020/12/21 13:30:21;;;;;;;4.75;3.85;;;;;;;;;;5098083;28;20072;-57
2020/12/21 13:33:03;;;;;;;5.32;3.75;;;;;;;;;;5116644;28;20107;-57
2020/12/21 13:35:35;;;;;;;4.05;3.35;;;;;;;;;;5116968;28;20024;-58
2020/12/21 13:38:10;;;;;;;4.35;3.60;;;;;;;;;;5116807;28;20047;-57
2020/12/21 13:40:59;;;;;;;6.50;4.97;;;;;;;;;;5116116;28;20024;-57
2020/12/21 13:46:17;;;;;;;7.45;5.43;;;;;;;;;;5116237;28;20046;-58
2020/12/21 13:52:20;;;;;;;5.03;4.53;;;;;;;;;;5032818;28;20029;-56
2020/12/21 13:55:04;;;;;;;5.35;4.85;;;;;;;;;;5033784;28;20037;-58
2020/12/21 14:00:49;;;;;;;6.00;4.20;;;;;;;;;;5105105;28;20104;-58
2020/12/21 14:04:08;;;;;;;5.70;5.13;;;;;;;;;;5095448;28;20038;-57
2020/12/21 14:09:51;;;;;;;;;;;;;;;;;;;;;
2020/12/21 14:12:32;;;;;;;9.00;6.85;;;;;;;;;;5115627;28;20131;-57
2020/12/21 14:21:08;;;;;;;6.93;5.10;;;;;;;;;;5115951;28;20028;-57
2020/12/21 14:23:54;;;;;;;5.93;5.32;;;;;;;;;;5096963;28;20449;-58
2020/12/21 14:29:59;;;;;;;8.23;6.53;;;;;;;;;;5116043;28;20031;-59
2020/12/21 14:32:40;;;;;;;6.30;5.22;;;;;;;;;;5051021;28;20032;-59
2020/12/21 14:35:21;;;;;;;5.68;5.10;;;;;;;;;;5083001;28;20032;-59
2020/12/21 14:37:53;;;;;;;5.32;4.82;;;;;;;;;;5115898;28;20110;-57
2020/12/21 14:40:48;;;;;;;6.00;5.10;;;;;;;;;;5097659;28;20140;-59
2020/12/21 14:43:42;;;;;;;4.72;4.03;;;;;;;;;;5089451;28;20114;-54
2020/12/21 14:46:24;;;;;;;6.80;5.63;;;;;;;;;;5098942;28;20107;-59
2020/12/21 14:48:56;;;;;;;7.05;5.20;;;;;;;;;;5115161;28;20346;-59
2020/12/21 14:51:39;;;;;;;5.57;5.07;;;;;;;;;;5115433;28;20032;-59
2020/12/21 15:07:02;;;;;;;5.22;4.68;;;;;;;;;;5092138;28;20032;-57
2020/12/21 15:09:48;;;;;;;5.60;4.35;;;;;;;;;;5115735;28;20034;-58
2020/12/21 15:12:39;;;;;;;5.05;3.53;;;;;;;;;;5098695;28;20123;-56
2020/12/21 15:15:16;;;;;;;5.65;4.25;;;;;;;;;;5097200;28;20117;-57
2020/12/21 15:21:01;;;;;;;5.15;4.22;;;;;;;;;;5113867;28;20032;-57
2020/12/21 15:23:48;;;;;;;8.05;4.45;;;;;;;;;;5097067;28;20027;-58
2020/12/21 15:26:24;;;;;;;4.68;3.33;;;;;;;;;;5100117;28;20035;-56
2020/12/21 15:34:50;;;;;;;6.15;4.07;;;;;;;;;;5087296;28;20487;-57
2020/12/21 15:37:37;;;;;;;4.72;4.22;;;;;;;;;;5118349;28;20051;-58
2020/12/21 15:40:28;;;;;;;6.20;4.32;;;;;;;;;;5118461;28;20024;-58
2020/12/21 15:43:09;;;;;;;6.07;4.05;;;;;;;;;;5118935;28;20471;-55
2020/12/21 15:45:51;;;;;;;4.47;3.97;;;;;;;;;;5116646;28;20131;-58
2020/12/21 15:48:30;;;;;;;4.70;4.05;;;;;;;;;;5115827;28;20031;-57
2020/12/21 15:54:48;;;;;;;4.43;3.55;;;;;;;;;;5034882;28;20518;-58
2020/12/21 16:00:37;;;;;;;4.68;3.20;;;;;;;;;;5117987;28;20169;-58
2020/12/21 16:09:18;;;;;;;5.38;3.75;;;;;;;;;;5062317;28;20195;-59
2020/12/21 16:15:15;;;;;;;4.15;3.75;;;;;;;;;;5113312;28;20073;-58
2020/12/21 16:23:54;;;;;;;4.15;3.33;;;;;;;;;;5026860;28;20029;-57
2020/12/21 16:29:34;;;;;;;5.20;4.10;;;;;;;;;;5051597;28;20519;-53
2020/12/21 16:32:14;;;;;;;5.30;4.13;;;;;;;;;;5075317;28;20028;-57
2020/12/21 16:35:05;;;;;;;6.23;4.53;;;;;;;;;;5041018;28;20036;-56
2020/12/21 16:38:00;;;;;;;4.55;4.15;;;;;;;;;;5075415;28;20285;-57
2020/12/21 16:43:36;;;;;;;;;;;;;;;;;;;;;
2020/12/21 16:47:00;;;;;;;;;;;;;;;;;;;;;
2020/12/21 16:49:39;;;;;;;5.65;4.03;;;;;;;;;;5035058;28;20447;-57
2020/12/21 16:52:33;;;;;;;4.80;4.25;;;;;;;;;;5035330;28;20076;-57
2020/12/21 16:55:02;;;;;;;4.28;3.20;;;;;;;;;;5034369;28;20079;-57
2020/12/21 16:57:35;;;;;;;5.35;4.55;;;;;;;;;;5035039;28;20042;-58
2020/12/21 17:00:30;;;;;;;4.03;3.63;;;;;;;;;;5034408;28;20049;-54
2020/12/21 17:03:00;;;;;;;6.57;4.57;;;;;;;;;;5001838;28;20490;-57
2020/12/21 17:05:44;;;;;;;;;;;;;;;;;;;;;
2020/12/21 17:08:46;;;;;;;4.72;3.88;;;;;;;;;;5001770;28;20117;-57
2020/12/21 17:17:44;;;;;;;4.05;3.42;;;;;;;;;;5093569;28;20384;-57
2020/12/21 17:20:34;;;;;;;6.43;4.75;;;;;;;;;;5118472;28;20077;-58
2020/12/21 17:26:41;;;;;;;8.60;4.32;;;;;;;;;;5035502;28;20430;-57
2020/12/21 17:29:39;;;;;;;5.70;4.35;;;;;;;;;;5038310;28;20033;-58
2020/12/21 17:32:40;;;;;;;5.82;3.63;;;;;;;;;;5034305;28;20095;-55
2020/12/21 17:35:37;;;;;;;4.60;3.60;;;;;;;;;;4973361;28;20046;-58
2020/12/21 17:38:21;;;;;;;4.78;4.00;;;;;;;;;;4964478;28;20038;-58
2020/12/21 17:40:52;;;;;;;4.70;4.20;;;;;;;;;;5053411;28;20033;-57
2020/12/21 17:49:54;;;;;;;6.00;4.35;;;;;;;;;;5046373;28;20071;-58
2020/12/21 17:52:30;;;;;;;;;;;;;;;;;;;;;
2020/12/21 17:55:21;;;;;;;6.18;4.30;;;;;;;;;;5110460;28;20028;-58
2020/12/21 18:04:23;;;;;;;5.63;3.50;;;;;;;;;;5083414;28;20160;-58
2020/12/21 18:10:21;;;;;;;5.60;3.55;;;;;;;;;;5032576;28;20030;-57
2020/12/21 18:12:57;;;;;;;5.40;4.65;;;;;;;;;;5015445;28;20030;-57
2020/12/21 18:15:49;;;;;;;4.55;4.07;;;;;;;;;;5077172;28;20043;-58
2020/12/21 18:18:36;;;;;;;6.85;5.55;;;;;;;;;;5095368;28;20028;-59
2020/12/21 18:21:31;;;;;;;;;;;;;;;;;;;;;
2020/12/21 18:26:55;;;;;;;4.03;3.63;;;;;;;;;;5071142;28;20036;-55
2020/12/21 18:29:48;;;;;;;5.88;5.28;;;;;;;;;;5094960;28;20031;-58
2020/12/21 18:38:55;;;;;;;5.60;4.93;;;;;;;;;;5094854;28;20027;-58
2020/12/21 18:41:22;;;;;;;4.93;4.43;;;;;;;;;;5095806;28;20307;-59
2020/12/21 18:44:04;;;;;;;7.43;5.72;;;;;;;;;;5094925;28;20024;-59
2020/12/21 18:47:14;;;;;;;6.63;4.80;;;;;;;;;;5095914;28;20032;-59
2020/12/21 18:50:25;;;;;;;5.10;4.13;;;;;;;;;;4997836;28;20097;-59
2020/12/21 18:53:03;;;;;;;5.35;4.75;;;;;;;;;;5006841;28;20117;-57
2020/12/21 18:55:50;;;;;;;5.53;4.80;;;;;;;;;;5012895;28;20038;-58
2020/12/21 18:58:53;;;;;;;4.95;4.15;;;;;;;;;;5035148;28;20040;-57
2020/12/21 19:04:42;;;;;;;5.85;4.72;;;;;;;;;;5095183;28;20038;-56
2020/12/21 19:07:34;;;;;;;6.28;4.10;;;;;;;;;;5092895;28;20368;-56
2020/12/21 19:10:19;;;;;;;4.55;3.65;;;;;;;;;;5076121;28;20051;-57
2020/12/21 19:12:48;;;;;;;;;;;;;;;;;;5094937;28;20034;-59
2020/12/21 19:15:47;;;;;;;4.75;3.88;;;;;;;;;;5115022;28;19922;-56
2020/12/21 19:18:34;;;;;;;5.97;4.60;;;;;;;;;;5094313;28;20036;-54
2020/12/21 19:24:32;;;;;;;6.13;3.53;;;;;;;;;;5032133;28;20502;-58
2020/12/21 19:30:24;;;;;;;6.32;4.22;;;;;;;;;;4974112;28;20045;-57
2020/12/21 19:36:21;;;;;;;4.85;3.92;;;;;;;;;;5038632;28;20136;-58
2020/12/21 19:38:54;;;;;;;4.60;3.67;;;;;;;;;;5071519;28;20358;-58
2020/12/21 19:41:40;;;;;;;7.00;3.45;;;;;;;;;;5115653;28;20079;-58
2020/12/21 19:44:51;;;;;;;4.75;2.83;;;;;;;;;;5101169;28;20042;-56
2020/12/21 19:50:51;;;;;;;4.93;3.60;;;;;;;;;;5032261;28;20089;-57
2020/12/21 19:56:56;;;;;;;4.25;3.38;;;;;;;;;;5031123;28;20136;-57
2020/12/21 19:59:47;;;;;;;5.43;3.33;;;;;;;;;;5114663;28;20065;-58
2020/12/21 20:05:28;;;;;;;5.13;3.58;;;;;;;;;;5064028;28;20044;-57
2020/12/21 20:08:03;;;;;;;4.10;3.25;;;;;;;;;;5054400;28;20025;-57
2020/12/21 20:10:49;;;;;;;4.50;3.83;;;;;;;;;;5036122;28;20032;-58
2020/12/21 20:13:35;;;;;;;6.30;3.85;;;;;;;;;;5058561;28;20037;-57
2020/12/21 20:19:29;;;;;;;6.10;4.25;;;;;;;;;;5075152;28;20048;-58
2020/12/21 20:22:23;;;;;;;;;;;;;;;;;;;;;
2020/12/21 20:25:18;;;;;;;5.22;4.15;;;;;;;;;;5046754;28;20140;-58
2020/12/21 20:27:57;;;;;;;6.72;4.50;;;;;;;;;;5087892;28;20127;-56
2020/12/21 20:33:41;;;;;;;5.40;4.22;;;;;;;;;;5039416;28;20093;-57
2020/12/21 20:36:16;;;;;;;5.95;4.38;;;;;;;;;;5027609;28;20037;-57
2020/12/21 20:39:08;;;;;;;7.32;5.35;;;;;;;;;;5027438;28;20069;-57
2020/12/21 20:41:41;;;;;;;6.25;4.40;;;;;;;;;;5027447;28;20030;-56
2020/12/21 20:44:17;;;;;;;6.75;4.82;;;;;;;;;;5047711;28;20083;-56
2020/12/21 20:46:53;;;;;;;6.03;5.22;;;;;;;;;;5067510;28;20078;-55
2020/12/21 20:58:31;;;;;;;5.30;3.60;;;;;;;;;;5027190;28;20069;-56
2020/12/21 21:04:06;;;;;;;3.88;3.50;;;;;;;;;;4954647;29;20104;-57
2020/12/21 21:09:25;;;;;;;4.47;3.75;;;;;;;;;;4961954;29;20154;-55
2020/12/21 21:12:23;;;;;;;5.07;4.43;;;;;;;;;;4968382;29;20059;-56
2020/12/21 21:15:06;;;;;;;;;;;;;;;;;;;;;
2020/12/21 21:21:13;;;;;;;5.68;4.68;;;;;;;;;;4996167;28;20033;-57
2020/12/21 21:23:55;;;;;;;4.70;3.88;;;;;;;;;;5033853;28;20029;-58
2020/12/21 21:26:33;;;;;;;5.45;4.20;;;;;;;;;;5034591;28;20060;-56
2020/12/21 21:29:26;;;;;;;6.00;3.92;;;;;;;;;;5032020;28;20037;-57
2020/12/21 21:32:13;;;;;;;5.90;4.15;;;;;;;;;;5015920;28;20548;-59
2020/12/21 21:35:02;;;;;;;6.60;3.97;;;;;;;;;;5033115;28;20068;-58
2020/12/21 21:37:42;;;;;;;4.30;3.40;;;;;;;;;;5039637;28;20414;-58
2020/12/21 21:43:16;;;;;;;4.60;3.15;;;;;;;;;;5074315;28;20093;-57
2020/12/21 21:46:13;;;;;;;4.65;3.50;;;;;;;;;;5024196;28;20446;-57
2020/12/21 21:49:03;;;;;;;4.53;3.38;;;;;;;;;;5073706;28;20501;-59
2020/12/21 21:52:09;;;;;;;4.38;3.35;;;;;;;;;;5073991;28;20036;-57
2020/12/21 21:55:02;;;;;;;3.42;2.97;;;;;;;;;;5056626;28;20082;-59
2020/12/21 21:57:46;;;;;;;4.57;3.17;;;;;;;;;;5038617;28;20107;-59
2020/12/21 22:00:34;;;;;;;;;;;;;;;;;;;;;
2020/12/21 22:03:22;;;;;;;3.85;2.95;;;;;;;;;;5081162;28;20052;-59
2020/12/21 22:06:05;;;;;;;4.20;3.10;;;;;;;;;;5085582;28;20088;-59
2020/12/21 22:12:18;;;;;;;3.63;3.00;;;;;;;;;;5042447;28;20029;-57
2020/12/21 22:20:37;;;;;;;3.65;3.22;;;;;;;;;;5066834;28;20059;-57
2020/12/21 22:32:17;;;;;;;3.80;3.35;;;;;;;;;;5078443;28;20036;-56
2020/12/21 22:35:02;;;;;;;;;;;;;;;;;;;;;
2020/12/21 22:40:44;;;;;;;4.03;3.25;;;;;;;;;;5097803;28;20024;-58
2020/12/21 22:43:47;;;;;;;3.15;2.42;;;;;;;;;;5108667;28;20016;-57
2020/12/21 22:46:12;;;;;;;3.72;2.63;;;;;;;;;;5105497;28;20028;-56
2020/12/21 22:52:00;;;;;;;4.05;3.10;;;;;;;;;;5102582;28;20096;-58
2020/12/21 22:54:50;;;;;;;3.45;2.63;;;;;;;;;;5104654;28;20036;-58
2020/12/21 22:57:48;;;;;;;4.97;2.80;;;;;;;;;;5085358;28;20028;-57
2020/12/21 23:00:41;;;;;;;4.10;2.88;;;;;;;;;;5041816;28;20036;-58
2020/12/21 23:03:32;;;;;;;4.05;2.50;;;;;;;;;;5068725;28;20041;-57
2020/12/21 23:06:19;;;;;;;3.22;2.70;;;;;;;;;;5085615;28;20048;-58
2020/12/21 23:09:08;;;;;;;3.50;2.35;;;;;;;;;;5086528;28;20045;-57
2020/12/21 23:11:47;;;;;;;3.65;2.20;;;;;;;;;;5085988;28;20036;-56
2020/12/21 23:17:24;;;;;;;3.42;2.35;;;;;;;;;;5044043;28;20049;-57
2020/12/21 23:20:22;;;;;;;3.05;1.88;;;;;;;;;;5097388;28;20056;-57
2020/12/21 23:26:17;;;;;;;3.55;2.38;;;;;;;;;;5098311;28;20087;-58
2020/12/21 23:29:23;;;;;;;2.38;1.88;;;;;;;;;;5112446;28;20032;-58
2020/12/21 23:32:15;;;;;;;2.67;1.73;;;;;;;;;;5128092;28;20341;-58
2020/12/21 23:34:58;;;;;;;2.00;1.50;;;;;;;;;;5124495;28;20038;-57
2020/12/21 23:37:46;;;;;;;2.25;1.48;;;;;;;;;;5105744;28;20162;-58
2020/12/21 23:40:40;;;;;;;2.50;1.60;;;;;;;;;;5105664;28;20102;-58
2020/12/21 23:43:28;;;;;;;2.20;1.63;;;;;;;;;;5107674;28;20103;-57
2020/12/21 23:49:49;;;;;;;2.85;1.65;;;;;;;;;;5105645;28;20099;-57
2020/12/21 23:52:37;;;;;;;2.28;1.35;;;;;;;;;;5109469;28;20032;-58
2020/12/21 23:55:23;;;;;;;1.98;1.08;;;;;;;;;;5109550;28;20088;-58
2020/12/21 23:58:15;;;;;;;2.40;1.60;;;;;;;;;;5109872;28;20054;-55
